KFYV/FYV METAR and TAF weather

Enter ICAO airport designator
Station Type Date Time Source
KFYV METAR 2020/08/15 09:53 UTC NOAA

KFYV 150953Z AUTO 00000KT 10SM CLR 21/20 A2996 RMK AO2 SLP129 T02060200


Station Type Date Time Source
KFYV Decoded METAR 2020/08/15 09:53 UTC NOAA

FAYETTEVILLE DRAKE FIELD, AR, United States (KFYV) 36-00N 94-10W 379M
Aug 15, 2020 - 05:53 AM EDT / 2020.08.15 0953 UTC
Wind: Calm:0
Visibility: 10 mile(s):0
Sky conditions: clear
Temperature: 69.1 F (20.6 C)
Dew Point: 68.0 F (20.0 C)
Relative Humidity: 96%
Pressure (altimeter): 29.96 in. Hg (1014 hPa)
ob: KFYV 150953Z AUTO 00000KT 10SM CLR 21/20 A2996 RMK AO2 SLP129 T02060200
cycle: 10

Station Type Date Time Source
KFYV TAF 2020/08/15 06:24 UTC NOAA

TAF KFYV 150523Z 1506/1606 00000KT P6SM FEW250
TEMPO 1510/1513 1SM BR
FM151500 34005KT P6SM SCT035 SCT250
FM160100 33003KT P6SM FEW250

Example: see airport list